Time;durP1;ratioP1;P1;durP2;ratioP2;P2;SDS_P1;SDS_P2;PMS_P1;PMS_P2;Temp;Humidity;BMP_temperature;BMP_pressure;BME280_temperature;BME280_humidity;BME280_pressure;Samples;Min_cycle;Max_cycle;Signal;HPM_P1;HPM_P2
2023/07/09 00:00:10;;;;;;;23.40;21.45;;;17.20;81.10;;;;;;5053483;28;20160;-86
2023/07/09 00:02:35;;;;;;;25.23;23.00;;;17.20;81.10;;;;;;5051803;28;20184;-86
2023/07/09 00:05:01;;;;;;;18.50;16.20;;;17.20;81.20;;;;;;5053392;28;20183;-86
2023/07/09 00:07:33;;;;;;;19.98;18.08;;;17.20;81.10;;;;;;5052048;28;20199;-86
2023/07/09 00:09:59;;;;;;;18.05;16.38;;;17.30;80.90;;;;;;5052198;28;20685;-86
2023/07/09 00:12:25;;;;;;;18.08;16.77;;;17.30;80.80;;;;;;5052038;28;20529;-86
2023/07/09 00:14:51;;;;;;;18.67;17.20;;;17.20;80.90;;;;;;5051894;28;20254;-86
2023/07/09 00:17:28;;;;;;;18.95;17.48;;;17.10;81.20;;;;;;5052037;28;20172;-86
2023/07/09 00:19:54;;;;;;;9.77;9.02;;;17.10;81.40;;;;;;5052008;28;20168;-86
2023/07/09 00:22:20;;;;;;;13.93;9.43;;;17.00;81.60;;;;;;5053191;28;20180;-86
2023/07/09 00:24:50;;;;;;;12.20;9.15;;;17.00;81.70;;;;;;5051887;28;20199;-86
2023/07/09 00:27:21;;;;;;;10.27;9.20;;;17.00;81.60;;;;;;5051770;28;20200;-86
2023/07/09 00:29:47;;;;;;;11.45;8.88;;;17.00;81.70;;;;;;5051778;28;20658;-87
2023/07/09 00:32:15;;;;;;;9.82;9.00;;;17.00;81.80;;;;;;5053016;28;20168;-87
2023/07/09 00:34:48;;;;;;;12.27;9.77;;;17.00;81.80;;;;;;5051697;28;20200;-87
2023/07/09 00:37:16;;;;;;;11.55;9.50;;;16.90;81.80;;;;;;5051709;28;20191;-87
2023/07/09 00:39:42;;;;;;;10.38;9.50;;;16.90;81.80;;;;;;5051811;28;20281;-87
2023/07/09 00:42:19;;;;;;;12.25;8.48;;;16.80;81.90;;;;;;5052967;28;20337;-87
2023/07/09 00:44:47;;;;;;;10.23;9.23;;;16.80;82.10;;;;;;5051821;28;20199;-87
2023/07/09 00:47:34;;;;;;;9.60;8.65;;;16.70;82.20;;;;;;5051617;28;20249;-86
2023/07/09 00:50:16;;;;;;;9.20;8.27;;;16.70;82.20;;;;;;5051703;28;20237;-85
2023/07/09 00:52:53;;;;;;;11.57;9.23;;;16.70;82.30;;;;;;5052923;28;20214;-85
2023/07/09 00:55:24;;;;;;;11.68;8.82;;;16.60;82.40;;;;;;5051548;28;20237;-85
2023/07/09 00:57:56;;;;;;;18.13;8.30;;;16.60;82.50;;;;;;5052944;28;20179;-86
2023/07/09 01:00:27;;;;;;;14.45;7.72;;;16.70;82.40;;;;;;5056870;28;20149;-86
2023/07/09 01:02:53;;;;;;;9.55;8.65;;;16.70;82.30;;;;;;5055418;28;20233;-85
2023/07/09 01:05:19;;;;;;;10.07;8.52;;;16.70;82.20;;;;;;5055731;28;20636;-85
2023/07/09 01:07:46;;;;;;;11.65;8.32;;;16.70;82.20;;;;;;5056682;28;20235;-85
2023/07/09 01:10:14;;;;;;;10.02;9.02;;;16.70;82.30;;;;;;5056757;28;20259;-85
2023/07/09 01:12:40;;;;;;;15.25;8.13;;;16.60;82.30;;;;;;5055256;28;20263;-86
2023/07/09 01:15:07;;;;;;;8.90;8.13;;;16.60;82.40;;;;;;5055475;28;20176;-86
2023/07/09 01:17:33;;;;;;;9.30;8.25;;;16.50;82.40;;;;;;5055217;28;20172;-86
2023/07/09 01:19:59;;;;;;;9.82;8.63;;;16.60;82.30;;;;;;5055663;28;20551;-86
2023/07/09 01:22:27;;;;;;;9.60;8.70;;;16.50;82.30;;;;;;5055250;28;20172;-86
2023/07/09 01:25:04;;;;;;;13.13;8.68;;;16.50;82.20;;;;;;5056341;28;20192;-85
2023/07/09 01:27:46;;;;;;;9.23;8.52;;;16.60;82.20;;;;;;5056235;28;20261;-86
2023/07/09 01:30:34;;;;;;;8.80;8.18;;;16.60;82.00;;;;;;5055155;28;20160;-86
2023/07/09 01:33:01;;;;;;;9.82;8.82;;;16.60;81.90;;;;;;5055515;28;20246;-85
2023/07/09 01:35:29;;;;;;;9.95;9.10;;;16.60;81.70;;;;;;5055048;28;20175;-86
2023/07/09 01:37:55;;;;;;;12.68;8.57;;;16.60;81.50;;;;;;5055749;28;20218;-86
2023/07/09 01:40:23;;;;;;;10.07;9.10;;;16.50;81.70;;;;;;5055014;28;20180;-86
2023/07/09 01:42:51;;;;;;;9.30;8.55;;;16.40;82.00;;;;;;5054672;28;20647;-86
2023/07/09 01:45:20;;;;;;;9.75;8.95;;;16.40;82.20;;;;;;5054724;28;20263;-86
2023/07/09 01:47:46;;;;;;;9.55;8.77;;;16.30;82.20;;;;;;5054738;28;20192;-86
2023/07/09 01:50:11;;;;;;;9.98;9.18;;;16.40;82.20;;;;;;5054663;28;20179;-86
2023/07/09 01:52:41;;;;;;;10.65;8.88;;;16.40;82.00;;;;;;5055123;28;20184;-85
2023/07/09 01:55:10;;;;;;;9.82;8.82;;;16.40;82.00;;;;;;5054609;28;20271;-86
2023/07/09 01:57:36;;;;;;;9.68;8.85;;;16.40;81.90;;;;;;5054862;28;20337;-86
2023/07/09 02:00:13;;;;;;;10.10;9.07;;;16.30;81.60;;;;;;5055717;28;20180;-86
2023/07/09 02:02:42;;;;;;;9.75;8.80;;;16.30;81.70;;;;;;5055589;28;20209;-86
2023/07/09 02:05:08;;;;;;;12.60;8.70;;;16.30;81.80;;;;;;5055696;28;20171;-86
2023/07/09 02:07:34;;;;;;;9.43;8.57;;;16.20;81.90;;;;;;5054302;28;20706;-86
2023/07/09 02:10:00;;;;;;;9.93;8.95;;;16.20;81.90;;;;;;5053301;28;20176;-86
2023/07/09 02:12:25;;;;;;;9.88;8.52;;;16.20;82.00;;;;;;5055060;28;20175;-85
2023/07/09 02:14:51;;;;;;;10.45;8.73;;;16.20;82.10;;;;;;5054180;28;20195;-86
2023/07/09 02:17:17;;;;;;;9.90;9.15;;;16.20;81.90;;;;;;5055760;28;20179;-86
2023/07/09 02:19:43;;;;;;;10.00;9.05;;;16.20;81.60;;;;;;5054081;28;20210;-85
2023/07/09 02:22:09;;;;;;;10.40;9.18;;;16.10;81.50;;;;;;5053950;28;20176;-86
2023/07/09 02:24:35;;;;;;;10.75;9.23;;;16.10;81.70;;;;;;5054052;28;20200;-86
2023/07/09 02:27:03;;;;;;;9.88;9.15;;;16.00;81.70;;;;;;5055150;28;20183;-86
2023/07/09 02:29:30;;;;;;;14.20;8.48;;;16.00;81.90;;;;;;5054543;28;20256;-86
2023/07/09 02:31:57;;;;;;;9.30;8.60;;;16.00;82.00;;;;;;5054550;28;20175;-86
2023/07/09 02:34:25;;;;;;;9.50;8.57;;;15.90;82.00;;;;;;5053903;28;20196;-86
2023/07/09 02:36:55;;;;;;;9.88;8.88;;;15.90;81.80;;;;;;5054980;28;20206;-86
2023/07/09 02:39:22;;;;;;;12.82;9.23;;;15.90;81.80;;;;;;5054972;28;20180;-86
2023/07/09 02:41:48;;;;;;;10.38;9.02;;;15.80;81.90;;;;;;5053772;28;20172;-86
2023/07/09 02:44:15;;;;;;;9.43;8.68;;;15.80;81.90;;;;;;5053630;28;20192;-85
2023/07/09 02:46:41;;;;;;;9.70;8.90;;;15.90;81.70;;;;;;5054836;28;20179;-86
2023/07/09 02:49:09;;;;;;;20.08;10.75;;;15.90;81.60;;;;;;5055004;28;20206;-86
2023/07/09 02:51:34;;;;;;;10.88;9.90;;;15.80;81.60;;;;;;5054763;28;20168;-86
2023/07/09 02:54:02;;;;;;;9.55;8.75;;;15.80;81.90;;;;;;5053405;28;20273;-85
2023/07/09 02:56:28;;;;;;;9.88;9.15;;;15.70;82.20;;;;;;5053546;28;20597;-86
2023/07/09 02:58:53;;;;;;;9.30;8.18;;;15.70;82.30;;;;;;5053276;28;20624;-86
2023/07/09 03:01:24;;;;;;;9.07;8.32;;;15.70;82.50;;;;;;5053481;28;20267;-86
2023/07/09 03:03:52;;;;;;;9.25;8.43;;;15.70;82.50;;;;;;5054571;28;20188;-86
2023/07/09 03:06:20;;;;;;;10.40;8.50;;;15.60;82.50;;;;;;5053330;28;20177;-86
2023/07/09 03:08:46;;;;;;;10.27;8.48;;;15.50;82.50;;;;;;5053218;28;20215;-86
2023/07/09 03:11:13;;;;;;;9.30;8.50;;;15.50;82.60;;;;;;5053264;28;20168;-86
2023/07/09 03:13:38;;;;;;;9.07;8.23;;;15.50;82.70;;;;;;5053079;28;20192;-86
2023/07/09 03:16:05;;;;;;;11.65;8.40;;;15.50;82.80;;;;;;5053127;28;20183;-86
2023/07/09 03:18:30;;;;;;;9.48;8.57;;;15.50;82.70;;;;;;5053146;28;20179;-86
2023/07/09 03:20:56;;;;;;;9.70;8.05;;;15.50;82.80;;;;;;5052552;28;20263;-86
2023/07/09 03:23:22;;;;;;;11.35;8.80;;;15.50;82.80;;;;;;5052924;28;20227;-86
2023/07/09 03:25:47;;;;;;;9.02;8.15;;;15.60;82.50;;;;;;5054086;28;20619;-86
2023/07/09 03:28:13;;;;;;;9.88;9.10;;;15.70;82.30;;;;;;5053383;28;20191;-86
2023/07/09 03:30:43;;;;;;;10.30;9.30;;;15.70;82.00;;;;;;5053914;28;20639;-85
2023/07/09 03:33:10;;;;;;;11.90;8.35;;;15.70;81.80;;;;;;5053841;28;20196;-85
2023/07/09 03:35:37;;;;;;;9.52;8.77;;;15.60;81.80;;;;;;5052774;28;20172;-85
2023/07/09 03:38:02;;;;;;;9.57;8.50;;;15.50;82.00;;;;;;5052605;28;20179;-86
2023/07/09 03:40:28;;;;;;;10.43;8.27;;;15.50;82.30;;;;;;5052657;28;20172;-85
2023/07/09 03:42:53;;;;;;;9.32;8.18;;;15.50;82.50;;;;;;5052562;28;20203;-85
2023/07/09 03:45:19;;;;;;;9.07;8.15;;;15.40;82.60;;;;;;5052581;28;20180;-85
2023/07/09 03:47:44;;;;;;;9.20;8.30;;;15.50;82.70;;;;;;5052359;28;20208;-86
2023/07/09 03:50:11;;;;;;;9.00;8.10;;;15.50;82.70;;;;;;5053653;28;20176;-86
2023/07/09 03:52:37;;;;;;;8.80;7.90;;;15.50;82.70;;;;;;5052400;28;20168;-85
2023/07/09 03:55:04;;;;;;;10.53;8.37;;;15.60;82.40;;;;;;5052184;28;20195;-86
2023/07/09 03:57:30;;;;;;;11.60;8.25;;;15.70;81.90;;;;;;5053591;28;20198;-86
2023/07/09 03:59:57;;;;;;;9.60;8.90;;;15.80;81.50;;;;;;5052621;28;20207;-86
2023/07/09 04:02:22;;;;;;;11.70;8.80;;;15.90;81.50;;;;;;5053482;28;20561;-86
2023/07/09 04:04:48;;;;;;;9.25;8.38;;;15.90;81.40;;;;;;5052157;28;20683;-86
2023/07/09 04:07:14;;;;;;;10.63;8.20;;;15.90;81.30;;;;;;5052001;28;20254;-86
2023/07/09 04:09:40;;;;;;;11.27;8.18;;;15.90;81.30;;;;;;5053424;28;20663;-86
2023/07/09 04:12:06;;;;;;;9.38;8.65;;;15.90;81.30;;;;;;5052427;28;20176;-85
2023/07/09 04:14:32;;;;;;;9.60;8.80;;;15.90;81.40;;;;;;5053111;28;20195;-86
2023/07/09 04:16:57;;;;;;;9.20;8.40;;;15.90;81.70;;;;;;5053591;28;20168;-86
2023/07/09 04:19:23;;;;;;;9.23;8.32;;;15.90;81.80;;;;;;5051993;28;20180;-86
2023/07/09 04:21:49;;;;;;;9.32;8.50;;;15.90;81.80;;;;;;5051979;28;20180;-86
2023/07/09 04:24:17;;;;;;;9.27;8.38;;;15.90;81.90;;;;;;5053501;28;20211;-85
2023/07/09 04:26:43;;;;;;;9.88;8.65;;;15.90;81.90;;;;;;5051902;28;20180;-86
2023/07/09 04:29:09;;;;;;;9.32;8.40;;;15.90;82.10;;;;;;5051885;28;20565;-86
2023/07/09 04:31:35;;;;;;;8.38;7.63;;;15.90;82.10;;;;;;5052752;28;20172;-85
2023/07/09 04:34:01;;;;;;;8.32;7.63;;;15.90;82.10;;;;;;5052545;28;20196;-86
2023/07/09 04:36:27;;;;;;;8.98;8.18;;;16.00;82.00;;;;;;5051778;28;20263;-86
2023/07/09 04:38:52;;;;;;;7.97;7.28;;;16.10;82.00;;;;;;5052926;28;20172;-85
2023/07/09 04:41:18;;;;;;;8.27;7.55;;;16.20;81.80;;;;;;5051847;28;20176;-86
2023/07/09 04:43:43;;;;;;;7.70;7.10;;;16.30;81.40;;;;;;5053189;28;20200;-85
2023/07/09 04:46:09;;;;;;;8.20;7.40;;;16.50;81.00;;;;;;5051939;28;20221;-86
2023/07/09 04:48:35;;;;;;;8.10;7.30;;;16.70;80.60;;;;;;5051668;28;20235;-86
2023/07/09 04:51:00;;;;;;;7.82;7.03;;;16.80;79.90;;;;;;5053189;28;20180;-86
2023/07/09 04:53:26;;;;;;;8.70;8.00;;;17.00;79.40;;;;;;5051486;28;20666;-86
2023/07/09 04:55:52;;;;;;;9.43;8.07;;;17.00;78.50;;;;;;5051722;28;20167;-86
2023/07/09 04:58:18;;;;;;;8.48;7.78;;;17.20;78.20;;;;;;5051615;28;20178;-86
2023/07/09 05:00:45;;;;;;;8.68;8.07;;;17.30;78.30;;;;;;5052925;28;20173;-86
2023/07/09 05:03:10;;;;;;;8.70;8.00;;;17.40;78.40;;;;;;5051488;28;20261;-86
2023/07/09 05:05:45;;;;;;;8.85;7.95;;;17.50;77.80;;;;;;5051543;28;20271;-86
2023/07/09 05:08:12;;;;;;;9.35;8.50;;;17.60;76.90;;;;;;5051542;28;20200;-86
2023/07/09 05:10:45;;;;;;;8.90;8.10;;;17.80;76.20;;;;;;5052816;28;20168;-86
2023/07/09 05:13:11;;;;;;;9.50;8.80;;;17.90;75.90;;;;;;5051485;28;20203;-86
2023/07/09 05:15:40;;;;;;;9.43;8.30;;;18.00;75.60;;;;;;5051522;28;20593;-85
2023/07/09 05:18:07;;;;;;;10.45;9.43;;;18.20;75.40;;;;;;5052692;28;20177;-86
2023/07/09 05:20:33;;;;;;;13.68;9.15;;;18.20;74.90;;;;;;5051521;28;20176;-86
2023/07/09 05:22:59;;;;;;;10.90;9.85;;;18.30;74.30;;;;;;5051581;28;20203;-86
2023/07/09 05:25:24;;;;;;;10.57;9.40;;;18.40;73.70;;;;;;5052623;28;20255;-86
2023/07/09 05:27:51;;;;;;;10.13;9.38;;;18.50;73.40;;;;;;5051240;28;20624;-86
2023/07/09 05:30:17;;;;;;;11.40;10.30;;;18.70;72.20;;;;;;5051279;28;20180;-86
2023/07/09 05:32:43;;;;;;;11.48;10.57;;;18.80;71.20;;;;;;5052370;28;20180;-86
2023/07/09 05:35:09;;;;;;;11.85;10.75;;;18.90;71.10;;;;;;5052801;28;20546;-86
2023/07/09 05:37:35;;;;;;;11.20;10.32;;;19.00;70.80;;;;;;5050986;28;20220;-86
2023/07/09 05:40:01;;;;;;;12.27;11.38;;;19.10;70.50;;;;;;5052338;28;20168;-86
2023/07/09 05:42:26;;;;;;;13.35;12.40;;;19.20;68.90;;;;;;5051429;28;20206;-86
2023/07/09 05:44:52;;;;;;;13.00;12.10;;;19.30;68.30;;;;;;5054903;28;20196;-86
2023/07/09 05:47:18;;;;;;;13.48;12.18;;;19.50;68.10;;;;;;5054708;28;20207;-86
2023/07/09 05:49:43;;;;;;;13.70;12.52;;;19.60;68.70;;;;;;5054641;28;20184;-86
2023/07/09 05:52:09;;;;;;;14.20;12.82;;;19.70;67.30;;;;;;5054658;28;20209;-86
2023/07/09 05:54:34;;;;;;;14.57;13.57;;;19.70;66.80;;;;;;5054644;28;20349;-86
2023/07/09 05:57:00;;;;;;;15.18;13.63;;;19.80;66.20;;;;;;5056101;28;20168;-86
2023/07/09 05:59:25;;;;;;;15.15;13.95;;;19.90;65.10;;;;;;5054537;28;20174;-86
2023/07/09 06:01:51;;;;;;;15.43;13.88;;;20.00;65.40;;;;;;5054535;28;20183;-86
2023/07/09 06:04:17;;;;;;;14.90;13.70;;;20.10;66.20;;;;;;5054384;28;20188;-86
2023/07/09 06:06:44;;;;;;;14.70;13.65;;;20.20;66.40;;;;;;5055857;28;20233;-86
2023/07/09 06:09:09;;;;;;;14.73;13.68;;;20.30;65.20;;;;;;5054654;28;20597;-85
2023/07/09 06:11:35;;;;;;;15.27;13.90;;;20.40;65.40;;;;;;5054471;28;20229;-86
2023/07/09 06:14:01;;;;;;;15.55;14.02;;;20.40;65.40;;;;;;5054668;28;20204;-86
2023/07/09 06:16:27;;;;;;;14.70;13.63;;;20.50;65.30;;;;;;5055740;28;20168;-87
2023/07/09 06:18:53;;;;;;;15.93;14.57;;;20.60;63.80;;;;;;5054195;28;20215;-86
2023/07/09 06:21:18;;;;;;;16.17;14.73;;;20.70;64.60;;;;;;5055305;28;20214;-86
2023/07/09 06:23:45;;;;;;;15.20;14.00;;;20.80;64.40;;;;;;5055200;28;20679;-86
2023/07/09 06:26:11;;;;;;;16.10;14.68;;;20.90;65.20;;;;;;5055338;28;20180;-86
2023/07/09 06:28:36;;;;;;;15.77;14.63;;;21.00;65.00;;;;;;5055161;28;20261;-86
2023/07/09 06:31:02;;;;;;;16.30;14.82;;;21.10;64.60;;;;;;5053942;28;20203;-86
2023/07/09 06:33:28;;;;;;;16.88;15.60;;;21.20;64.20;;;;;;5054662;28;20290;-86
2023/07/09 06:35:58;;;;;;;15.75;14.65;;;21.30;64.00;;;;;;5055113;28;20229;-86
2023/07/09 06:38:24;;;;;;;16.48;15.10;;;21.30;63.90;;;;;;5053874;28;20164;-86
2023/07/09 06:40:50;;;;;;;15.63;14.52;;;21.40;63.90;;;;;;5055128;28;20682;-86
2023/07/09 06:43:17;;;;;;;16.08;14.88;;;21.60;63.50;;;;;;5053740;28;20203;-87
2023/07/09 06:45:52;;;;;;;16.52;15.07;;;21.60;62.50;;;;;;5053987;28;20198;-86
2023/07/09 06:48:18;;;;;;;16.83;15.60;;;21.70;64.00;;;;;;5053568;28;20779;-87
2023/07/09 06:50:44;;;;;;;16.67;14.98;;;21.80;63.90;;;;;;5053604;28;20230;-87
2023/07/09 06:53:10;;;;;;;17.98;16.77;;;21.90;63.40;;;;;;5053601;28;20196;-87
2023/07/09 06:55:35;;;;;;;16.58;15.20;;;22.00;62.60;;;;;;5054290;28;20274;-87
2023/07/09 06:58:01;;;;;;;17.48;16.38;;;22.10;63.00;;;;;;5054993;28;20180;-87
2023/07/09 07:00:26;;;;;;;16.67;15.43;;;22.20;62.70;;;;;;5054813;28;20175;-87
2023/07/09 07:02:52;;;;;;;16.33;15.20;;;22.20;62.50;;;;;;5053368;28;20206;-87
2023/07/09 07:05:18;;;;;;;16.73;15.32;;;22.30;62.20;;;;;;5053378;28;20621;-86
2023/07/09 07:07:44;;;;;;;18.50;17.30;;;22.40;60.10;;;;;;5053352;28;20270;-87
2023/07/09 07:10:10;;;;;;;18.25;16.70;;;22.50;61.20;;;;;;5053296;28;20180;-87
2023/07/09 07:12:47;;;;;;;16.48;15.10;;;22.50;60.30;;;;;;5053265;28;20318;-87
2023/07/09 07:15:15;;;;;;;17.50;16.10;;;22.60;60.00;;;;;;5053089;28;25130;-87
2023/07/09 07:17:41;;;;;;;31.17;28.87;;;22.70;61.20;;;;;;5053054;28;20229;-87
2023/07/09 07:20:08;;;;;;;16.73;15.50;;;22.70;60.70;;;;;;5052989;28;20205;-87
2023/07/09 07:22:34;;;;;;;16.48;15.27;;;22.80;60.40;;;;;;5052921;28;20183;-87
2023/07/09 07:25:00;;;;;;;23.75;21.88;;;22.90;61.90;;;;;;5054186;28;20302;-87
2023/07/09 07:27:25;;;;;;;18.08;16.33;;;23.10;61.50;;;;;;5054378;28;20192;-86
2023/07/09 07:29:52;;;;;;;21.20;19.58;;;23.20;60.00;;;;;;5054407;28;20658;-87
2023/07/09 07:32:17;;;;;;;16.80;15.43;;;23.20;58.50;;;;;;5052881;28;20640;-87
2023/07/09 07:34:43;;;;;;;17.50;16.25;;;23.40;60.90;;;;;;5052722;28;20192;-87
2023/07/09 07:37:08;;;;;;;23.45;21.75;;;23.50;60.10;;;;;;5052825;28;20223;-87
2023/07/09 07:39:34;;;;;;;26.42;24.63;;;23.60;61.10;;;;;;5052896;28;20179;-87
2023/07/09 07:41:59;;;;;;;24.38;22.48;;;23.70;58.90;;;;;;5054057;28;20180;-88
2023/07/09 07:44:25;;;;;;;24.52;22.52;;;23.80;60.20;;;;;;5052637;28;20241;-88
2023/07/09 07:46:50;;;;;;;24.67;22.55;;;23.90;59.20;;;;;;5052657;28;20182;-88
2023/07/09 07:49:16;;;;;;;23.58;21.23;;;24.00;60.30;;;;;;5052563;28;20336;-88
2023/07/09 07:51:42;;;;;;;22.77;20.95;;;24.00;58.10;;;;;;5053999;28;20636;-87
2023/07/09 07:54:09;;;;;;;22.98;20.98;;;24.20;58.40;;;;;;5053540;28;20195;-88
2023/07/09 07:56:36;;;;;;;23.63;21.80;;;24.20;57.80;;;;;;5052899;28;20250;-87
2023/07/09 07:59:01;;;;;;;29.02;27.08;;;24.30;58.00;;;;;;5052752;28;20198;-87
2023/07/09 08:01:27;;;;;;;16.20;14.70;;;24.40;59.30;;;;;;5052348;28;20176;-87
2023/07/09 08:03:53;;;;;;;15.40;14.00;;;24.40;58.40;;;;;;5052264;28;20196;-88
2023/07/09 08:06:18;;;;;;;22.40;20.77;;;24.50;57.90;;;;;;5052931;28;20183;-87
2023/07/09 08:08:44;;;;;;;21.80;20.30;;;24.50;59.30;;;;;;5052129;28;20257;-88
2023/07/09 08:11:10;;;;;;;23.08;21.52;;;24.60;58.20;;;;;;5052333;28;20172;-87
2023/07/09 08:13:36;;;;;;;22.15;20.48;;;24.60;57.60;;;;;;5053545;28;20732;-88
2023/07/09 08:16:03;;;;;;;23.05;21.00;;;24.70;57.30;;;;;;5053414;28;20545;-87
2023/07/09 08:18:28;;;;;;;23.35;21.58;;;24.80;58.30;;;;;;5052174;28;20184;-86
2023/07/09 08:20:54;;;;;;;16.67;15.52;;;24.90;58.10;;;;;;5051907;28;20225;-85
2023/07/09 08:23:19;;;;;;;16.52;15.10;;;25.00;56.50;;;;;;5053382;28;20541;-86
2023/07/09 08:25:56;;;;;;;16.67;15.23;;;25.20;56.10;;;;;;5051973;28;20287;-86
2023/07/09 08:28:22;;;;;;;15.63;14.43;;;25.20;55.30;;;;;;5051750;28;20235;-85
2023/07/09 08:30:47;;;;;;;16.45;14.82;;;25.40;56.30;;;;;;5053071;28;20203;-86
2023/07/09 08:33:13;;;;;;;16.27;15.00;;;25.40;56.10;;;;;;5051830;28;20682;-87
2023/07/09 08:35:42;;;;;;;16.13;14.93;;;25.60;55.70;;;;;;5051918;28;20176;-86
2023/07/09 08:38:08;;;;;;;16.73;15.32;;;25.70;56.10;;;;;;5051852;28;20176;-86
2023/07/09 08:40:38;;;;;;;15.75;14.65;;;25.80;55.60;;;;;;5052008;28;20199;-86
2023/07/09 08:43:14;;;;;;;16.00;14.75;;;25.90;54.90;;;;;;5051694;28;20196;-85
2023/07/09 08:45:57;;;;;;;17.23;15.85;;;26.00;54.30;;;;;;5051815;28;20168;-86
2023/07/09 08:48:32;;;;;;;15.82;14.80;;;26.20;55.30;;;;;;5052831;28;20275;-86
2023/07/09 08:51:03;;;;;;;16.33;15.10;;;26.20;54.30;;;;;;5052888;28;20175;-86
2023/07/09 08:53:33;;;;;;;15.52;14.30;;;26.40;53.40;;;;;;5052632;28;20245;-86
2023/07/09 08:55:59;;;;;;;15.63;14.52;;;26.50;53.50;;;;;;5053156;28;20156;-86
2023/07/09 08:58:30;;;;;;;17.08;15.82;;;26.60;53.00;;;;;;5051639;28;20670;-87
2023/07/09 09:00:59;;;;;;;15.65;14.35;;;26.70;51.70;;;;;;5051600;28;20176;-86
2023/07/09 09:03:31;;;;;;;15.95;14.65;;;26.80;53.30;;;;;;5051431;28;20192;-85
2023/07/09 09:05:57;;;;;;;15.52;14.43;;;26.90;53.10;;;;;;5051516;28;20183;-85
2023/07/09 09:08:28;;;;;;;18.88;14.50;;;27.00;52.50;;;;;;5052665;28;20572;-84
2023/07/09 09:11:00;;;;;;;23.67;21.92;;;27.00;52.10;;;;;;5051345;28;20612;-84
2023/07/09 09:13:29;;;;;;;22.60;21.10;;;26.90;52.80;;;;;;5051453;28;20279;-84
2023/07/09 09:15:58;;;;;;;17.02;15.73;;;26.90;53.20;;;;;;5051325;28;20384;-86
2023/07/09 09:18:27;;;;;;;16.42;15.25;;;26.80;53.00;;;;;;5052003;28;20210;-85
2023/07/09 09:21:14;;;;;;;16.63;15.38;;;27.00;53.60;;;;;;5055391;28;20175;-85
2023/07/09 09:23:45;;;;;;;25.13;23.40;;;27.10;53.00;;;;;;5055315;28;20690;-87
2023/07/09 09:26:32;;;;;;;21.10;19.33;;;27.20;52.90;;;;;;5057460;28;20233;-87
2023/07/09 09:28:59;;;;;;;17.15;15.75;;;27.30;52.30;;;;;;5055223;28;20227;-86
2023/07/09 09:31:27;;;;;;;19.90;18.35;;;27.30;52.60;;;;;;5055339;28;20176;-87
2023/07/09 09:33:52;;;;;;;17.33;16.00;;;27.40;53.40;;;;;;5054943;28;20271;-86
2023/07/09 09:36:26;;;;;;;16.65;15.23;;;27.50;53.10;;;;;;5055009;28;20271;-86
2023/07/09 09:38:52;;;;;;;16.08;14.88;;;27.60;53.10;;;;;;5055104;28;20172;-86
2023/07/09 09:41:24;;;;;;;18.35;17.00;;;27.70;54.10;;;;;;5054938;28;20176;-85
2023/07/09 09:43:53;;;;;;;16.88;15.57;;;27.80;53.70;;;;;;5056028;28;20275;-85
2023/07/09 09:46:31;;;;;;;22.30;20.90;;;27.90;52.10;;;;;;5056370;28;20192;-85
2023/07/09 09:49:00;;;;;;;18.83;17.23;;;28.10;52.30;;;;;;5056245;28;20184;-86
2023/07/09 09:51:26;;;;;;;19.45;17.98;;;28.10;49.40;;;;;;5054848;28;20181;-86
2023/07/09 09:54:02;;;;;;;19.90;18.30;;;28.30;53.50;;;;;;5054657;28;20215;-86
2023/07/09 09:56:36;;;;;;;19.05;17.23;;;28.50;50.50;;;;;;5056543;28;20631;-86
2023/07/09 09:59:03;;;;;;;17.35;15.85;;;28.60;53.70;;;;;;5054760;28;20227;-86
2023/07/09 10:01:38;;;;;;;17.10;15.88;;;28.70;53.80;;;;;;5054486;28;20180;-86
2023/07/09 10:04:05;;;;;;;17.73;16.05;;;28.70;51.70;;;;;;5055564;28;20219;-86
2023/07/09 10:06:44;;;;;;;18.97;17.50;;;28.60;52.30;;;;;;5054462;28;20182;-86
2023/07/09 10:09:46;;;;;;;19.20;17.30;;;28.60;51.80;;;;;;5055630;28;20783;-86
2023/07/09 10:12:30;;;;;;;16.27;15.18;;;28.70;50.40;;;;;;5055692;28;20631;-86
2023/07/09 10:15:19;;;;;;;17.02;15.75;;;28.90;51.00;;;;;;5055436;28;20569;-86
2023/07/09 10:18:00;;;;;;;16.52;15.10;;;29.00;49.30;;;;;;5056063;28;20183;-86
2023/07/09 10:20:37;;;;;;;17.30;15.90;;;29.20;50.80;;;;;;5054259;28;20217;-87
2023/07/09 10:24:03;;;;;;;16.67;15.57;;;29.30;49.50;;;;;;5055680;28;20192;-87
2023/07/09 10:26:44;;;;;;;16.13;14.73;;;29.50;48.70;;;;;;5016843;28;20181;-86
2023/07/09 10:29:50;;;;;;;16.67;15.23;;;29.70;48.40;;;;;;5033631;28;20215;-87
2023/07/09 10:32:34;;;;;;;16.52;15.15;;;29.70;46.60;;;;;;5052250;28;20219;-86
2023/07/09 10:35:07;;;;;;;16.67;15.43;;;29.80;47.50;;;;;;5053953;28;20633;-86
2023/07/09 10:38:19;;;;;;;16.65;15.18;;;29.90;46.60;;;;;;5053855;28;20164;-86
2023/07/09 10:40:49;;;;;;;16.23;15.02;;;29.90;46.70;;;;;;5053871;28;20171;-86
2023/07/09 10:43:24;;;;;;;16.70;15.48;;;30.10;47.60;;;;;;5054150;28;20227;-86
2023/07/09 10:45:57;;;;;;;16.60;15.05;;;30.10;45.70;;;;;;5053829;28;20164;-86
2023/07/09 10:48:37;;;;;;;16.95;15.40;;;30.20;47.00;;;;;;5053669;28;20195;-86
2023/07/09 10:51:04;;;;;;;16.58;15.48;;;30.30;46.40;;;;;;5055188;28;20152;-87
2023/07/09 10:53:37;;;;;;;17.35;15.98;;;30.30;44.40;;;;;;5054597;28;20294;-86
2023/07/09 10:56:11;;;;;;;16.15;14.82;;;30.50;46.10;;;;;;5053619;28;20249;-87
2023/07/09 10:59:05;;;;;;;16.23;15.15;;;30.50;46.10;;;;;;5054827;28;20662;-86
2023/07/09 11:01:41;;;;;;;16.67;15.10;;;30.60;45.70;;;;;;5054730;28;20160;-87
2023/07/09 11:04:25;;;;;;;15.70;14.60;;;30.60;46.40;;;;;;5055106;28;20215;-87
2023/07/09 11:06:53;;;;;;;18.85;17.08;;;30.70;44.90;;;;;;5053639;28;20255;-87
2023/07/09 11:09:33;;;;;;;17.90;16.20;;;30.90;44.20;;;;;;5053296;28;20210;-87
2023/07/09 11:12:06;;;;;;;17.30;15.85;;;30.90;45.60;;;;;;5053452;28;20172;-86
2023/07/09 11:14:37;;;;;;;17.63;16.08;;;31.00;45.90;;;;;;5053349;28;20584;-87
2023/07/09 11:17:05;;;;;;;17.05;15.70;;;31.20;46.80;;;;;;5054609;28;20152;-87
2023/07/09 11:19:31;;;;;;;17.88;16.35;;;31.20;45.30;;;;;;5053278;28;20176;-87
2023/07/09 11:22:07;;;;;;;17.48;15.88;;;31.30;44.30;;;;;;5053092;28;20178;-87
2023/07/09 11:24:44;;;;;;;23.52;16.25;;;31.30;43.20;;;;;;5053613;28;20199;-87
2023/07/09 11:27:25;;;;;;;17.15;15.93;;;31.30;43.80;;;;;;5054909;28;20210;-87
2023/07/09 11:30:00;;;;;;;16.38;15.18;;;31.40;43.90;;;;;;5054675;28;20271;-86
2023/07/09 11:32:27;;;;;;;16.73;15.32;;;31.50;43.30;;;;;;5052967;28;20262;-86
2023/07/09 11:34:53;;;;;;;16.35;15.20;;;31.70;39.50;;;;;;5054298;28;20184;-87
2023/07/09 11:37:22;;;;;;;17.50;16.00;;;31.70;39.30;;;;;;5054520;28;20168;-87
2023/07/09 11:39:48;;;;;;;16.77;15.50;;;31.90;40.40;;;;;;5053166;28;20179;-86
2023/07/09 11:42:28;;;;;;;15.52;14.07;;;32.20;38.60;;;;;;5054128;28;20237;-87
2023/07/09 11:45:10;;;;;;;16.65;15.45;;;32.40;36.70;;;;;;5054066;28;20548;-87
2023/07/09 11:47:52;;;;;;;17.25;15.65;;;32.50;38.50;;;;;;5053718;28;20204;-87
2023/07/09 11:50:28;;;;;;;18.77;17.33;;;32.30;38.50;;;;;;5053978;28;20600;-87
2023/07/09 11:53:02;;;;;;;17.10;15.75;;;32.20;39.90;;;;;;5052745;28;20168;-87
2023/07/09 11:55:28;;;;;;;16.48;15.18;;;32.10;39.30;;;;;;5053669;28;20179;-87
2023/07/09 11:57:59;;;;;;;16.95;15.75;;;32.40;37.10;;;;;;5053415;28;20179;-87
2023/07/09 12:00:30;;;;;;;17.05;15.45;;;32.70;37.70;;;;;;5052544;28;20631;-87
2023/07/09 12:02:56;;;;;;;17.40;15.90;;;32.70;34.90;;;;;;5054181;28;20199;-87
2023/07/09 12:05:28;;;;;;;18.40;16.90;;;32.50;36.60;;;;;;5052467;28;20187;-86
2023/07/09 12:07:56;;;;;;;22.73;20.92;;;32.10;37.70;;;;;;5053526;28;20191;-86
2023/07/09 12:10:28;;;;;;;18.15;16.85;;;32.10;37.80;;;;;;5052330;28;20222;-86
2023/07/09 12:12:58;;;;;;;19.02;17.63;;;32.20;38.80;;;;;;5052162;28;20165;-86
2023/07/09 12:15:27;;;;;;;18.35;16.77;;;32.10;37.10;;;;;;5052121;28;20187;-86
2023/07/09 12:18:08;;;;;;;18.55;16.95;;;32.00;35.90;;;;;;5053594;28;20272;-86
2023/07/09 12:20:35;;;;;;;18.45;16.85;;;32.20;36.30;;;;;;5052285;28;20174;-86
2023/07/09 12:23:16;;;;;;;19.23;17.55;;;32.20;37.90;;;;;;5052001;28;20196;-86
2023/07/09 12:25:48;;;;;;;18.88;17.27;;;32.40;39.60;;;;;;5053412;28;20194;-86
2023/07/09 12:28:15;;;;;;;18.70;17.20;;;32.30;39.70;;;;;;5053569;28;20210;-86
2023/07/09 12:30:46;;;;;;;18.98;17.38;;;32.50;37.80;;;;;;5052050;28;20171;-87
2023/07/09 12:33:16;;;;;;;17.80;15.88;;;32.40;37.30;;;;;;5051910;28;20199;-86
2023/07/09 12:35:42;;;;;;;17.80;16.30;;;32.40;38.50;;;;;;5053387;28;20160;-86
2023/07/09 12:38:22;;;;;;;18.27;16.67;;;32.40;36.80;;;;;;5053170;28;20168;-87
2023/07/09 12:40:49;;;;;;;17.45;16.02;;;32.50;37.40;;;;;;5053422;28;20562;-86
2023/07/09 12:43:22;;;;;;;18.38;15.75;;;32.60;37.10;;;;;;5053135;28;20278;-86